Time;durP1;ratioP1;P1;durP2;ratioP2;P2;SDS_P1;SDS_P2;PMS_P1;PMS_P2;Temp;Humidity;BMP_temperature;BMP_pressure;BME280_temperature;BME280_humidity;BME280_pressure;Samples;Min_cycle;Max_cycle;Signal;HPM_P1;HPM_P2
2022/09/13 00:01:05;;;;;;;10.32;9.05;;;19.30;99.90;;;;;;4924630;29;37548;-80
2022/09/13 00:03:31;;;;;;;8.10;7.30;;;19.30;99.90;;;;;;4909489;29;37312;-80
2022/09/13 00:06:05;;;;;;;8.35;6.68;;;19.30;99.90;;;;;;4909126;29;35626;-80
2022/09/13 00:08:31;;;;;;;8.98;7.40;;;19.30;99.90;;;;;;4907309;29;47009;-80
2022/09/13 00:11:00;;;;;;;7.18;6.47;;;19.30;99.90;;;;;;4927956;29;38571;-81
2022/09/13 00:13:27;;;;;;;10.38;7.68;;;19.30;99.90;;;;;;4915843;29;38110;-81
2022/09/13 00:15:53;;;;;;;9.20;7.70;;;19.20;99.90;;;;;;4936383;29;38782;-80
2022/09/13 00:18:32;;;;;;;10.30;8.40;;;19.20;99.90;;;;;;4917494;29;38941;-80
2022/09/13 00:21:11;;;;;;;12.20;9.27;;;19.20;99.90;;;;;;4915856;29;38691;-80
2022/09/13 00:23:37;;;;;;;13.05;9.30;;;19.10;99.90;;;;;;4922547;29;49231;-81
2022/09/13 00:26:10;;;;;;;11.05;8.93;;;19.10;99.90;;;;;;4906157;29;36041;-80
2022/09/13 00:28:36;;;;;;;8.57;7.78;;;19.00;99.90;;;;;;4916278;29;37505;-80
2022/09/13 00:31:05;;;;;;;10.10;8.88;;;19.00;99.90;;;;;;4919018;29;38243;-80
2022/09/13 00:33:37;;;;;;;12.63;9.30;;;19.00;99.90;;;;;;4938164;29;49259;-80
2022/09/13 00:36:04;;;;;;;;;;;19.00;99.90;;;;;;4917927;29;36892;-81
2022/09/13 00:38:30;;;;;;;14.27;9.68;;;19.00;99.90;;;;;;4920560;29;39104;-80
2022/09/13 00:40:56;;;;;;;10.70;9.27;;;18.90;99.90;;;;;;4908900;29;38384;-80
2022/09/13 00:43:50;;;;;;;10.82;8.82;;;18.90;99.90;;;;;;4916783;29;38245;-80
2022/09/13 00:46:28;;;;;;;13.30;9.32;;;18.90;99.90;;;;;;4910566;29;36721;-80
2022/09/13 00:49:01;;;;;;;15.52;9.63;;;18.90;99.90;;;;;;4910250;29;38040;-80
2022/09/13 00:51:29;;;;;;;14.63;10.20;;;18.90;99.90;;;;;;4907945;29;47479;-80
2022/09/13 00:53:58;;;;;;;10.98;9.88;;;18.90;99.90;;;;;;4905250;29;38685;-80
2022/09/13 00:56:41;;;;;;;18.90;12.32;;;18.90;99.90;;;;;;4892563;29;39363;-80
2022/09/13 00:59:23;;;;;;;13.02;11.25;;;18.90;99.90;;;;;;4904950;29;39116;-80
2022/09/13 01:01:53;;;;;;;13.65;11.90;;;18.90;99.90;;;;;;5328589;23;40609;-79
2022/09/13 01:04:22;;;;;;;12.80;11.40;;;18.90;99.90;;;;;;4853245;29;36439;-78
2022/09/13 01:06:52;;;;;;;14.27;12.02;;;18.90;99.90;;;;;;4856172;29;37717;-78
2022/09/13 01:09:18;;;;;;;15.70;11.88;;;18.90;99.90;;;;;;4847516;29;38351;-78
2022/09/13 01:11:49;;;;;;;14.43;11.20;;;18.90;99.90;;;;;;4869276;29;38462;-78
2022/09/13 01:14:19;;;;;;;13.85;12.35;;;18.90;99.90;;;;;;4856748;29;37269;-78
2022/09/13 01:16:45;;;;;;;16.90;11.15;;;18.90;99.90;;;;;;4871497;29;36056;-78
2022/09/13 01:19:11;;;;;;;14.70;11.82;;;19.00;99.90;;;;;;4846798;29;38010;-78
2022/09/13 01:22:07;;;;;;;14.85;12.02;;;18.90;99.90;;;;;;4847863;29;38551;-78
2022/09/13 01:25:00;;;;;;;15.80;12.43;;;18.90;99.90;;;;;;4844462;29;46444;-78
2022/09/13 01:27:45;;;;;;;17.30;14.35;;;18.90;99.90;;;;;;4848313;29;37686;-78
2022/09/13 01:30:21;;;;;;;15.93;12.73;;;19.00;99.90;;;;;;4861024;29;39857;-78
2022/09/13 01:33:00;;;;;;;17.10;13.55;;;18.90;99.90;;;;;;4850305;29;37139;-78
2022/09/13 01:35:29;;;;;;;14.55;11.55;;;19.00;99.90;;;;;;4865644;29;47394;-78
2022/09/13 01:38:34;;;;;;;17.48;12.77;;;19.00;99.90;;;;;;4847031;29;37404;-78
2022/09/13 01:41:06;;;;;;;14.70;12.15;;;19.00;99.90;;;;;;4851764;29;47021;-78
2022/09/13 01:43:39;;;;;;;16.33;13.10;;;19.00;99.90;;;;;;4853844;29;47160;-78
2022/09/13 01:46:10;;;;;;;15.25;12.18;;;19.00;99.90;;;;;;4869607;29;38213;-78
2022/09/13 01:48:42;;;;;;;16.05;12.77;;;19.00;99.90;;;;;;4873167;29;38162;-77
2022/09/13 01:51:25;;;;;;;14.93;12.63;;;19.00;99.90;;;;;;4865369;29;38817;-78
2022/09/13 01:54:20;;;;;;;14.93;11.68;;;19.00;99.90;;;;;;4864768;29;39000;-78
2022/09/13 01:57:01;;;;;;;15.48;12.38;;;18.90;99.90;;;;;;4866278;29;48105;-78
2022/09/13 01:59:51;;;;;;;15.50;12.70;;;19.00;99.90;;;;;;4871532;29;50408;-78
2022/09/13 02:02:39;;;;;;;15.57;12.70;;;19.00;99.90;;;;;;4873312;29;38959;-77
2022/09/13 02:05:17;;;;;;;16.10;12.43;;;19.00;99.90;;;;;;4870798;29;39183;-78
2022/09/13 02:07:54;;;;;;;15.60;12.82;;;19.00;99.90;;;;;;4850494;29;37581;-79
2022/09/13 02:10:27;;;;;;;13.52;10.88;;;18.90;99.90;;;;;;4866834;29;37141;-78
2022/09/13 02:12:54;;;;;;;12.93;11.00;;;18.90;99.90;;;;;;4855707;29;40239;-78
2022/09/13 02:15:26;;;;;;;11.23;10.00;;;19.00;99.90;;;;;;4871771;29;38608;-78
2022/09/13 02:18:05;;;;;;;13.38;10.55;;;19.00;99.90;;;;;;4856371;29;37412;-77
2022/09/13 02:20:35;;;;;;;12.48;10.23;;;18.90;99.90;;;;;;4871647;29;48692;-78
2022/09/13 02:23:12;;;;;;;12.55;9.98;;;18.90;99.90;;;;;;4870567;29;38064;-78
2022/09/13 02:25:40;;;;;;;16.38;13.07;;;18.90;99.90;;;;;;4858867;29;49252;-78
2022/09/13 02:28:10;;;;;;;13.50;10.85;;;18.90;99.90;;;;;;4868477;29;36669;-78
2022/09/13 02:30:39;;;;;;;12.40;10.23;;;18.90;99.90;;;;;;4853095;29;37562;-78
2022/09/13 02:33:34;;;;;;;13.10;11.32;;;19.00;99.90;;;;;;4875395;29;38787;-78
2022/09/13 02:36:11;;;;;;;13.05;10.98;;;19.00;99.90;;;;;;4853751;29;38459;-78
2022/09/13 02:39:01;;;;;;;13.95;12.50;;;19.00;99.90;;;;;;4872004;29;49305;-78
2022/09/13 02:41:45;;;;;;;13.93;11.52;;;19.00;99.90;;;;;;4866621;29;37336;-78
2022/09/13 02:44:21;;;;;;;16.67;12.00;;;19.00;99.90;;;;;;4866946;29;39344;-77
2022/09/13 02:47:09;;;;;;;14.70;11.40;;;18.90;99.90;;;;;;4870847;29;37965;-78
2022/09/13 02:50:01;;;;;;;16.40;12.75;;;18.90;99.90;;;;;;4851685;29;47682;-78
2022/09/13 02:52:40;;;;;;;;;;;18.90;99.90;;;;;;4852523;29;47203;-77
2022/09/13 02:55:28;;;;;;;11.93;10.65;;;18.90;99.90;;;;;;4873576;29;39446;-78
2022/09/13 02:58:29;;;;;;;14.55;10.68;;;18.90;99.90;;;;;;4849904;29;37447;-78
2022/09/13 03:00:56;;;;;;;13.50;10.98;;;18.90;99.90;;;;;;4842544;29;47537;-78
2022/09/13 03:03:23;;;;;;;12.68;10.68;;;18.90;99.90;;;;;;4847014;29;36665;-78
2022/09/13 03:05:49;;;;;;;14.07;10.98;;;18.90;99.90;;;;;;4872506;29;38552;-78
2022/09/13 03:08:17;;;;;;;10.55;9.45;;;18.90;99.90;;;;;;4855082;29;36148;-77
2022/09/13 03:11:18;;;;;;;13.77;11.93;;;18.90;99.90;;;;;;4874487;29;38354;-77
2022/09/13 03:13:47;;;;;;;13.77;10.82;;;18.90;99.90;;;;;;4828867;29;47570;-78
2022/09/13 03:16:25;;;;;;;14.35;11.32;;;18.90;99.90;;;;;;4865214;29;38204;-78
2022/09/13 03:19:05;;;;;;;15.48;12.68;;;18.90;99.90;;;;;;4870436;29;37660;-78
2022/09/13 03:21:51;;;;;;;15.02;12.10;;;18.90;99.90;;;;;;4870249;29;47881;-77
2022/09/13 03:24:48;;;;;;;11.63;10.43;;;19.00;99.90;;;;;;4804891;29;36230;-77
2022/09/13 03:27:36;;;;;;;14.23;11.70;;;18.90;99.90;;;;;;4864969;29;38928;-77
2022/09/13 03:30:05;;;;;;;13.50;11.98;;;18.90;99.90;;;;;;4874559;29;37921;-79
2022/09/13 03:32:33;;;;;;;13.57;11.65;;;19.00;99.90;;;;;;4855725;29;38620;-78
2022/09/13 03:35:26;;;;;;;14.18;10.80;;;18.90;99.90;;;;;;4872445;29;38962;-78
2022/09/13 03:38:01;;;;;;;13.38;10.88;;;18.90;99.90;;;;;;4870261;29;48880;-77
2022/09/13 03:40:39;;;;;;;17.42;12.68;;;18.90;99.90;;;;;;4868116;29;49040;-78
2022/09/13 03:43:10;;;;;;;14.48;11.32;;;18.90;99.90;;;;;;4865824;29;39035;-78
2022/09/13 03:45:45;;;;;;;12.30;11.00;;;19.00;99.90;;;;;;4868007;29;36526;-77
2022/09/13 03:48:12;;;;;;;17.73;13.10;;;18.90;99.90;;;;;;4862482;29;39040;-78
2022/09/13 03:50:39;;;;;;;19.02;14.63;;;18.90;99.90;;;;;;4850143;29;38491;-77
2022/09/13 03:53:10;;;;;;;22.13;14.80;;;18.90;99.90;;;;;;4869825;29;39603;-78
2022/09/13 03:55:42;;;;;;;14.98;13.07;;;18.90;99.90;;;;;;4852764;29;35806;-78
2022/09/13 03:58:17;;;;;;;14.05;11.27;;;19.00;99.90;;;;;;4869914;29;38625;-78
2022/09/13 04:00:44;;;;;;;13.10;11.30;;;19.00;99.90;;;;;;4866408;29;38655;-78
2022/09/13 04:03:13;;;;;;;15.35;11.63;;;18.90;99.90;;;;;;4871940;29;38122;-78
2022/09/13 04:05:39;;;;;;;14.90;12.27;;;18.90;99.90;;;;;;4868303;29;37001;-77
2022/09/13 04:08:06;;;;;;;14.10;12.63;;;18.90;99.90;;;;;;4861394;29;38733;-78
2022/09/13 04:10:33;;;;;;;15.27;12.23;;;18.90;99.90;;;;;;4870480;29;38033;-78
2022/09/13 04:13:00;;;;;;;15.18;12.20;;;18.90;99.90;;;;;;4871501;29;38207;-78
2022/09/13 04:15:27;;;;;;;18.52;13.43;;;18.90;99.90;;;;;;4867879;29;38841;-78
2022/09/13 04:17:53;;;;;;;21.23;15.45;;;18.90;99.90;;;;;;4854375;29;39186;-78
2022/09/13 04:20:19;;;;;;;16.48;13.70;;;18.90;99.90;;;;;;4868212;29;38143;-78
2022/09/13 04:22:56;;;;;;;16.25;13.75;;;18.80;99.90;;;;;;4853730;29;37072;-77
2022/09/13 04:25:23;;;;;;;16.33;12.80;;;18.80;99.90;;;;;;4852057;29;36365;-79
2022/09/13 04:27:54;;;;;;;19.35;13.70;;;18.90;99.90;;;;;;4866518;29;38053;-78
2022/09/13 04:30:20;;;;;;;16.67;11.52;;;18.80;99.90;;;;;;4853263;29;38858;-77
2022/09/13 04:32:47;;;;;;;14.85;11.95;;;18.80;99.90;;;;;;4868253;29;38631;-78
2022/09/13 04:35:18;;;;;;;16.80;12.75;;;18.70;99.90;;;;;;4853080;29;36467;-78
2022/09/13 04:37:44;;;;;;;16.52;13.23;;;18.70;99.90;;;;;;4850573;29;38467;-78
2022/09/13 04:40:11;;;;;;;18.60;12.73;;;18.70;99.90;;;;;;4860922;29;38245;-80
2022/09/13 04:42:38;;;;;;;18.17;13.77;;;18.60;99.90;;;;;;4868378;29;38393;-78
2022/09/13 04:45:05;;;;;;;18.80;14.75;;;18.60;99.90;;;;;;4872798;29;37597;-79
2022/09/13 04:47:31;;;;;;;18.33;14.48;;;18.50;99.90;;;;;;4872552;29;40023;-79
2022/09/13 04:49:58;;;;;;;15.60;12.80;;;18.50;99.90;;;;;;4852236;29;37511;-77
2022/09/13 04:52:24;;;;;;;15.93;14.00;;;18.50;99.90;;;;;;4850973;29;36939;-78
2022/09/13 04:54:50;;;;;;;18.38;14.07;;;18.40;99.90;;;;;;4852387;29;36325;-78
2022/09/13 04:57:16;;;;;;;19.08;15.45;;;18.40;99.90;;;;;;4852592;29;37831;-78
2022/09/13 04:59:43;;;;;;;18.92;14.90;;;18.40;99.90;;;;;;4859462;29;38313;-78
2022/09/13 05:02:09;;;;;;;20.98;14.38;;;18.40;99.90;;;;;;4858763;29;39340;-78
2022/09/13 05:04:35;;;;;;;20.50;15.25;;;18.30;99.90;;;;;;4855581;29;36834;-78
2022/09/13 05:07:01;;;;;;;16.88;14.13;;;18.30;99.90;;;;;;4865854;29;38810;-78
2022/09/13 05:09:27;;;;;;;14.60;12.60;;;18.30;99.90;;;;;;4865836;29;49435;-78
2022/09/13 05:11:53;;;;;;;17.00;13.05;;;18.30;99.90;;;;;;4850398;29;38250;-80
2022/09/13 05:14:19;;;;;;;15.57;13.02;;;18.30;99.90;;;;;;4849765;29;36480;-78
2022/09/13 05:16:45;;;;;;;16.73;14.05;;;18.20;99.90;;;;;;4856841;29;37854;-77
2022/09/13 05:19:12;;;;;;;15.95;14.15;;;18.20;99.90;;;;;;4867164;29;38667;-80
2022/09/13 05:21:38;;;;;;;18.70;13.38;;;18.20;99.90;;;;;;4858359;29;37983;-80
2022/09/13 05:24:04;;;;;;;21.83;14.77;;;18.20;99.90;;;;;;4876565;29;37113;-79
2022/09/13 05:26:30;;;;;;;19.95;14.48;;;18.20;99.90;;;;;;4858065;29;37465;-79
2022/09/13 05:28:58;;;;;;;17.92;14.77;;;18.20;99.90;;;;;;4855254;29;38673;-79
2022/09/13 05:31:30;;;;;;;16.55;14.60;;;18.20;99.90;;;;;;4868009;29;38071;-78
2022/09/13 05:34:03;;;;;;;18.75;14.98;;;18.30;99.90;;;;;;4864860;29;38217;-76
2022/09/13 05:36:30;;;;;;;15.52;12.32;;;18.30;99.90;;;;;;4863556;29;47135;-77
2022/09/13 05:38:56;;;;;;;18.15;14.70;;;18.20;99.90;;;;;;4851946;29;38162;-77
2022/09/13 05:41:22;;;;;;;19.48;15.00;;;18.30;99.90;;;;;;4874224;29;37976;-76
2022/09/13 05:43:49;;;;;;;20.88;16.02;;;18.30;99.90;;;;;;4869447;29;37350;-77
2022/09/13 05:46:17;;;;;;;18.10;13.75;;;18.30;99.90;;;;;;4849334;29;38041;-80
2022/09/13 05:48:44;;;;;;;16.60;14.77;;;18.30;99.90;;;;;;4852553;29;38951;-81
2022/09/13 05:51:12;;;;;;;18.88;15.77;;;18.30;99.90;;;;;;4849504;29;38370;-79
2022/09/13 05:53:39;;;;;;;17.80;13.52;;;18.30;99.90;;;;;;4844735;29;37695;-78
2022/09/13 05:56:07;;;;;;;19.88;14.85;;;18.30;99.90;;;;;;4875184;29;39603;-82
2022/09/13 05:58:38;;;;;;;19.80;15.77;;;18.30;99.90;;;;;;4853611;29;37715;-79
2022/09/13 06:01:05;;;;;;;20.88;15.55;;;18.30;99.90;;;;;;4867417;29;39017;-79
2022/09/13 06:03:31;;;;;;;17.23;13.77;;;18.30;99.90;;;;;;4852053;29;37634;-78
2022/09/13 06:05:58;;;;;;;19.02;15.57;;;18.30;99.90;;;;;;4834430;29;38411;-79
2022/09/13 06:08:29;;;;;;;14.82;12.57;;;18.30;99.90;;;;;;4861556;29;38420;-77
2022/09/13 06:11:01;;;;;;;17.13;14.45;;;18.30;99.90;;;;;;4864214;29;38137;-76
2022/09/13 06:13:28;;;;;;;18.25;13.23;;;18.40;99.90;;;;;;4868870;29;36481;-78
2022/09/13 06:15:55;;;;;;;17.15;13.88;;;18.40;99.90;;;;;;4851039;29;37618;-78
2022/09/13 06:18:23;;;;;;;14.70;12.98;;;18.50;99.90;;;;;;4875837;29;38299;-76
2022/09/13 06:20:49;;;;;;;19.52;15.82;;;18.40;99.90;;;;;;4851426;29;36850;-76
2022/09/13 06:23:16;;;;;;;16.40;13.65;;;18.50;99.90;;;;;;4866584;29;38123;-76
2022/09/13 06:25:43;;;;;;;20.25;15.18;;;18.60;99.90;;;;;;4869299;29;38747;-77
2022/09/13 06:28:09;;;;;;;16.98;14.60;;;18.60;99.90;;;;;;4857738;29;38381;-79
2022/09/13 06:30:35;;;;;;;19.35;15.73;;;18.70;99.90;;;;;;4869699;29;37998;-77
2022/09/13 06:33:01;;;;;;;19.42;14.98;;;18.70;99.90;;;;;;4857144;29;37163;-77
2022/09/13 06:35:27;;;;;;;19.67;14.70;;;18.70;99.90;;;;;;4856429;29;39112;-78
2022/09/13 06:37:56;;;;;;;20.95;14.38;;;18.80;99.90;;;;;;4850316;29;37486;-77
2022/09/13 06:40:22;;;;;;;20.10;14.55;;;18.90;99.90;;;;;;4864979;29;38246;-78
2022/09/13 06:42:49;;;;;;;18.83;14.02;;;19.10;99.90;;;;;;4864249;29;36189;-77
2022/09/13 06:45:15;;;;;;;18.30;12.85;;;19.30;99.90;;;;;;4851493;29;38706;-77
2022/09/13 06:47:41;;;;;;;15.23;10.68;;;19.50;99.90;;;;;;4851713;29;37270;-77
2022/09/13 06:50:08;;;;;;;13.45;10.02;;;19.60;99.90;;;;;;4863736;29;38056;-77
2022/09/13 06:52:34;;;;;;;16.35;9.13;;;19.80;99.90;;;;;;4865434;29;37575;-76
2022/09/13 06:55:03;;;;;;;13.50;8.05;;;20.00;99.90;;;;;;4853779;29;37452;-77
2022/09/13 06:57:29;;;;;;;13.18;8.02;;;20.10;99.90;;;;;;4849865;29;47767;-77
2022/09/13 06:59:55;;;;;;;11.20;6.80;;;20.20;99.90;;;;;;4866171;29;38102;-79
2022/09/13 07:02:23;;;;;;;12.50;6.50;;;20.30;99.90;;;;;;4851610;29;36104;-78
2022/09/13 07:04:50;;;;;;;11.02;6.18;;;20.40;99.90;;;;;;4873044;29;39537;-80
2022/09/13 07:07:16;;;;;;;7.72;5.00;;;20.50;99.90;;;;;;4870351;29;37807;-79
2022/09/13 07:09:42;;;;;;;7.22;4.82;;;20.60;99.90;;;;;;4846221;29;39650;-76
2022/09/13 07:12:08;;;;;;;9.00;4.07;;;20.70;99.90;;;;;;4864662;29;38293;-77
2022/09/13 07:14:34;;;;;;;7.88;4.25;;;20.80;99.90;;;;;;4854581;29;38713;-80
2022/09/13 07:17:03;;;;;;;5.05;2.85;;;20.90;99.90;;;;;;4855303;29;40617;-77
2022/09/13 07:19:30;;;;;;;4.03;2.67;;;20.90;99.90;;;;;;4834734;29;48521;-80
2022/09/13 07:21:56;;;;;;;2.72;2.47;;;21.00;99.90;;;;;;4831043;29;36056;-78
2022/09/13 07:24:23;;;;;;;6.88;2.88;;;21.00;99.90;;;;;;4851569;29;39121;-78
2022/09/13 07:26:49;;;;;;;4.43;2.30;;;21.10;99.90;;;;;;4831384;29;35409;-77
2022/09/13 07:29:18;;;;;;;2.47;1.60;;;21.20;99.90;;;;;;4843560;29;37329;-79
2022/09/13 07:31:47;;;;;;;2.58;1.73;;;21.20;99.90;;;;;;4834018;29;36498;-77
2022/09/13 07:34:24;;;;;;;4.65;2.08;;;21.30;99.90;;;;;;4853582;29;38793;-77
2022/09/13 07:36:51;;;;;;;4.00;1.83;;;21.40;99.90;;;;;;4852841;29;37987;-78
2022/09/13 07:39:17;;;;;;;1.88;1.55;;;21.30;99.90;;;;;;4828517;29;38681;-78
2022/09/13 07:41:45;;;;;;;2.72;1.38;;;21.30;99.90;;;;;;4829747;29;36429;-78
2022/09/13 07:44:14;;;;;;;5.22;2.50;;;21.40;99.90;;;;;;4832485;29;37595;-79
2022/09/13 07:46:42;;;;;;;6.57;2.63;;;21.40;99.90;;;;;;4846477;29;38342;-78
2022/09/13 07:49:11;;;;;;;2.42;1.85;;;21.50;99.90;;;;;;4831506;29;36948;-78
2022/09/13 07:51:39;;;;;;;3.63;1.95;;;21.50;99.90;;;;;;4845735;29;36755;-78
2022/09/13 07:54:10;;;;;;;2.70;1.70;;;21.60;99.90;;;;;;4833732;29;37637;-78
2022/09/13 07:56:37;;;;;;;5.55;3.40;;;21.70;99.90;;;;;;4840422;29;37328;-78
2022/09/13 07:59:06;;;;;;;2.75;2.10;;;21.80;99.90;;;;;;4831260;29;38847;-78
2022/09/13 08:01:38;;;;;;;2.80;2.17;;;21.90;99.90;;;;;;4852452;29;48437;-78
2022/09/13 08:04:11;;;;;;;4.45;2.60;;;22.00;99.90;;;;;;4848775;29;39743;-79
2022/09/13 08:06:38;;;;;;;3.17;2.13;;;22.00;99.90;;;;;;4829765;29;37345;-77
2022/09/13 08:09:06;;;;;;;2.67;2.05;;;22.00;99.90;;;;;;4833726;29;35587;-78
2022/09/13 08:11:37;;;;;;;5.20;3.05;;;22.00;99.90;;;;;;4834687;29;39380;-77
2022/09/13 08:14:05;;;;;;;2.60;2.40;;;22.20;99.90;;;;;;4850548;29;38980;-77
2022/09/13 08:16:32;;;;;;;2.60;2.20;;;22.10;99.90;;;;;;4844504;29;38449;-77
2022/09/13 08:19:00;;;;;;;5.38;2.42;;;22.20;99.90;;;;;;4834527;29;37028;-77
2022/09/13 08:21:34;;;;;;;3.35;2.60;;;22.10;99.90;;;;;;4848316;29;39770;-78
2022/09/13 08:24:01;;;;;;;4.00;2.58;;;22.20;99.90;;;;;;4834185;29;39457;-78
2022/09/13 08:26:32;;;;;;;4.47;3.00;;;22.10;99.90;;;;;;4848382;29;48926;-74
2022/09/13 08:29:00;;;;;;;3.10;2.30;;;22.10;99.90;;;;;;4848363;29;38435;-77
2022/09/13 08:31:26;;;;;;;6.03;3.35;;;22.10;99.90;;;;;;4845350;29;37712;-76
2022/09/13 08:33:53;;;;;;;3.22;2.70;;;22.20;99.90;;;;;;4850214;29;38653;-78
2022/09/13 08:36:22;;;;;;;2.30;2.10;;;22.20;99.90;;;;;;4847818;29;38483;-79
2022/09/13 08:38:57;;;;;;;3.33;1.90;;;22.30;99.90;;;;;;4852581;29;38126;-77
2022/09/13 08:41:44;;;;;;;4.55;1.92;;;22.40;99.90;;;;;;4828263;29;37492;-75
2022/09/13 08:44:32;;;;;;;2.65;1.90;;;22.60;99.90;;;;;;4850839;29;38349;-77
2022/09/13 08:47:05;;;;;;;3.88;2.00;;;22.80;99.90;;;;;;4850464;29;39030;-76
2022/09/13 08:49:38;;;;;;;4.35;2.08;;;23.00;99.90;;;;;;4842047;29;48190;-75
2022/09/13 08:52:22;;;;;;;3.75;1.40;;;23.20;99.90;;;;;;4825308;29;36183;-78
2022/09/13 08:54:50;;;;;;;6.72;1.92;;;23.40;99.90;;;;;;4819903;29;38045;-77
2022/09/13 08:57:25;;;;;;;1.52;1.35;;;23.50;99.90;;;;;;4837501;29;38282;-77
2022/09/13 09:00:04;;;;;;;6.15;2.00;;;23.70;99.90;;;;;;4832837;29;37174;-78
2022/09/13 09:02:58;;;;;;;5.43;2.20;;;23.70;99.90;;;;;;4842453;29;48988;-78
2022/09/13 09:05:31;;;;;;;3.28;1.55;;;23.70;99.90;;;;;;4844941;29;39623;-77
2022/09/13 09:08:05;;;;;;;5.50;1.90;;;23.50;99.90;;;;;;4846118;29;39498;-78
2022/09/13 09:10:36;;;;;;;2.30;1.17;;;23.60;99.90;;;;;;4848575;29;46341;-78
2022/09/13 09:13:07;;;;;;;2.25;1.20;;;23.50;99.90;;;;;;4832337;29;36372;-78
2022/09/13 09:15:39;;;;;;;2.45;1.90;;;23.50;99.90;;;;;;4848674;29;39710;-77
2022/09/13 09:18:09;;;;;;;;;;;23.40;99.90;;;;;;4829802;29;37163;-75
2022/09/13 09:20:45;;;;;;;5.68;1.92;;;23.30;99.90;;;;;;4831304;29;36834;-78
2022/09/13 09:23:18;;;;;;;3.83;1.52;;;23.40;99.90;;;;;;4834928;29;37072;-77
2022/09/13 09:25:44;;;;;;;2.78;1.20;;;23.20;99.90;;;;;;4829843;29;38205;-77
2022/09/13 09:28:15;;;;;;;3.30;1.50;;;23.10;99.90;;;;;;4829921;29;37911;-77
2022/09/13 09:30:50;;;;;;;3.47;1.50;;;23.20;99.90;;;;;;4845887;29;38223;-77
2022/09/13 09:33:46;;;;;;;3.00;1.23;;;23.30;99.90;;;;;;4843188;29;36224;-77
2022/09/13 09:36:19;;;;;;;2.15;1.10;;;23.30;99.90;;;;;;4834583;29;38050;-77
2022/09/13 09:38:45;;;;;;;2.25;1.10;;;23.50;99.90;;;;;;4848038;29;37398;-77
2022/09/13 09:41:28;;;;;;;5.60;1.20;;;23.50;99.90;;;;;;4833018;29;39334;-77
2022/09/13 09:44:00;;;;;;;9.05;1.77;;;23.40;99.90;;;;;;4840682;29;37998;-76
2022/09/13 09:46:30;;;;;;;4.38;1.25;;;23.40;99.90;;;;;;4844807;29;38540;-78
2022/09/13 09:52:05;;;;;;;1.70;0.93;;;23.40;99.90;;;;;;4841218;29;49207;-77
2022/09/13 09:54:33;;;;;;;3.65;0.90;;;23.70;99.90;;;;;;4832699;29;47520;-74
2022/09/13 09:57:00;;;;;;;1.40;0.90;;;23.90;99.90;;;;;;4842394;29;39489;-76
2022/09/13 09:59:30;;;;;;;2.83;1.02;;;24.00;99.90;;;;;;4842922;29;47166;-76
2022/09/13 10:01:56;;;;;;;2.78;1.00;;;24.00;99.90;;;;;;4823172;29;38397;-78
2022/09/13 10:04:23;;;;;;;3.85;0.77;;;24.00;99.90;;;;;;4846828;29;37071;-77
2022/09/13 10:07:06;;;;;;;1.98;0.60;;;23.90;99.90;;;;;;4851465;29;37796;-78
2022/09/13 10:09:32;;;;;;;2.55;0.75;;;24.00;99.90;;;;;;4851148;29;46796;-77
2022/09/13 10:11:59;;;;;;;1.20;0.90;;;24.10;99.90;;;;;;4848879;29;38045;-77
2022/09/13 10:14:28;;;;;;;1.77;0.88;;;24.10;99.90;;;;;;4849018;29;36376;-76
2022/09/13 10:17:24;;;;;;;3.45;0.85;;;24.10;99.90;;;;;;4850330;29;38841;-77
2022/09/13 10:20:02;;;;;;;1.10;0.90;;;24.20;99.90;;;;;;4854792;29;47259;-77
2022/09/13 10:22:30;;;;;;;1.25;0.70;;;24.30;99.90;;;;;;4855845;29;49277;-77
2022/09/13 10:25:30;;;;;;;3.17;0.88;;;24.30;99.90;;;;;;4845850;29;36632;-77
2022/09/13 10:27:59;;;;;;;3.67;1.27;;;24.30;99.90;;;;;;4791434;29;47212;-77
2022/09/13 10:30:43;;;;;;;2.97;1.25;;;24.20;99.90;;;;;;4856510;29;37339;-75
2022/09/13 10:33:31;;;;;;;1.67;0.90;;;24.00;99.90;;;;;;4831500;29;38246;-76
2022/09/13 10:36:00;;;;;;;4.75;0.77;;;23.80;99.90;;;;;;4850463;29;37797;-78
2022/09/13 10:38:39;;;;;;;2.10;0.77;;;23.70;99.90;;;;;;4840354;29;37673;-76
2022/09/13 10:41:19;;;;;;;1.95;0.75;;;24.00;99.90;;;;;;4848672;29;37720;-75
2022/09/13 10:43:47;;;;;;;3.80;0.88;;;24.30;99.90;;;;;;4844905;29;38032;-76
2022/09/13 10:46:22;;;;;;;3.90;0.77;;;24.30;99.90;;;;;;4843604;29;36233;-76
2022/09/13 10:48:54;;;;;;;4.22;1.27;;;24.10;99.90;;;;;;4849916;29;39212;-76
2022/09/13 10:51:26;;;;;;;5.10;1.00;;;24.00;99.90;;;;;;4828908;29;37521;-76
2022/09/13 10:54:23;;;;;;;3.10;1.00;;;23.90;99.90;;;;;;4845007;29;39338;-76
2022/09/13 10:56:50;;;;;;;7.05;1.27;;;23.70;99.90;;;;;;4845866;29;48058;-76
2022/09/13 10:59:23;;;;;;;3.88;0.90;;;23.70;99.90;;;;;;4829944;29;38996;-75
2022/09/13 11:02:18;;;;;;;4.65;0.80;;;23.80;99.90;;;;;;4849240;29;38465;-76
2022/09/13 11:05:00;;;;;;;4.93;1.20;;;23.80;99.90;;;;;;4799148;29;47555;-77
2022/09/13 11:07:46;;;;;;;6.43;0.93;;;23.80;99.90;;;;;;4852097;29;37555;-76
2022/09/13 11:10:20;;;;;;;2.03;0.80;;;23.70;99.90;;;;;;4849150;29;38824;-74
2022/09/13 11:13:05;;;;;;;4.30;0.80;;;23.70;99.90;;;;;;4855359;29;37213;-76
2022/09/13 11:15:46;;;;;;;5.07;1.20;;;23.70;99.90;;;;;;4846882;29;47263;-77
2022/09/13 11:18:24;;;;;;;4.85;0.90;;;23.80;99.90;;;;;;4848374;29;36991;-75
2022/09/13 11:21:15;;;;;;;2.20;0.80;;;23.80;99.90;;;;;;4845340;29;37834;-75
2022/09/13 11:24:01;;;;;;;2.67;0.82;;;23.70;99.90;;;;;;4843850;29;47409;-75
2022/09/13 11:26:43;;;;;;;4.25;1.10;;;23.60;99.90;;;;;;4841957;29;47231;-76
2022/09/13 11:29:26;;;;;;;3.60;1.00;;;23.80;99.90;;;;;;4840398;29;37093;-78
2022/09/13 11:32:26;;;;;;;5.00;1.40;;;23.90;99.90;;;;;;4831822;29;38449;-77
2022/09/13 11:35:16;;;;;;;4.78;0.90;;;24.00;99.90;;;;;;4846968;29;46992;-78
2022/09/13 11:38:04;;;;;;;4.05;0.80;;;24.00;99.90;;;;;;4831849;29;47153;-75
2022/09/13 11:40:51;;;;;;;3.17;0.70;;;24.00;99.90;;;;;;4849835;29;48668;-77
2022/09/13 11:43:41;;;;;;;3.67;0.80;;;24.10;99.90;;;;;;4829144;29;37678;-76
2022/09/13 11:46:25;;;;;;;2.13;0.98;;;24.40;99.90;;;;;;4802267;29;37632;-76
2022/09/13 11:49:16;;;;;;;4.72;0.80;;;24.90;99.90;;;;;;4831591;29;38406;-76
2022/09/13 11:51:45;;;;;;;3.38;0.95;;;25.40;99.90;;;;;;4831764;29;49210;-76
2022/09/13 11:54:36;;;;;;;3.22;0.98;;;25.60;99.90;;;;;;4848145;29;40140;-76
2022/09/13 11:57:09;;;;;;;5.57;0.90;;;25.50;99.90;;;;;;4842837;29;38243;-75
2022/09/13 12:00:01;;;;;;;2.53;1.42;;;25.60;99.90;;;;;;4844312;29;38495;-75
2022/09/13 12:02:43;;;;;;;3.33;1.00;;;25.70;99.90;;;;;;4840903;29;39446;-74
2022/09/13 12:05:20;;;;;;;2.45;1.15;;;25.80;99.90;;;;;;4842581;29;39577;-74
2022/09/13 12:07:49;;;;;;;3.50;0.98;;;25.70;99.90;;;;;;4833565;29;37744;-77
2022/09/13 12:10:19;;;;;;;3.67;1.10;;;25.60;99.90;;;;;;4833871;29;37232;-74
2022/09/13 12:12:49;;;;;;;2.92;0.90;;;25.40;99.90;;;;;;4827796;29;35914;-77
2022/09/13 12:15:20;;;;;;;1.90;0.68;;;25.30;99.90;;;;;;4852838;29;39755;-79
2022/09/13 12:18:21;;;;;;;4.05;1.17;;;25.20;99.90;;;;;;4844245;29;37474;-76
2022/09/13 12:21:05;;;;;;;4.47;0.90;;;25.10;99.90;;;;;;4831697;29;47405;-76
2022/09/13 12:24:02;;;;;;;4.10;0.98;;;25.00;99.90;;;;;;4846028;29;47282;-76
2022/09/13 12:26:31;;;;;;;3.95;0.90;;;25.20;99.90;;;;;;4792798;29;47263;-76
2022/09/13 12:29:21;;;;;;;2.03;0.82;;;25.20;99.90;;;;;;4835223;29;37368;-76
2022/09/13 12:31:47;;;;;;;3.95;0.93;;;24.80;99.90;;;;;;4818952;29;48866;-75
2022/09/13 12:34:27;;;;;;;4.28;1.08;;;24.40;99.90;;;;;;4845978;29;38112;-77
2022/09/13 12:37:15;;;;;;;3.00;0.77;;;24.10;99.90;;;;;;4848176;29;37935;-77
2022/09/13 12:39:52;;;;;;;1.70;0.73;;;24.10;99.90;;;;;;4831179;29;47493;-76
2022/09/13 12:42:48;;;;;;;1.35;0.50;;;24.20;99.90;;;;;;4845307;29;37873;-74
2022/09/13 12:45:20;;;;;;;2.45;0.90;;;24.30;99.90;;;;;;4841498;29;37428;-76
2022/09/13 12:47:52;;;;;;;;;;;24.30;99.90;;;;;;4847458;29;38814;-78
2022/09/13 12:50:49;;;;;;;2.50;0.70;;;24.30;99.90;;;;;;4842991;29;38947;-76
2022/09/13 12:53:52;;;;;;;3.38;0.85;;;24.20;99.90;;;;;;4834168;29;38203;-75
2022/09/13 12:56:44;;;;;;;4.03;0.63;;;24.20;99.90;;;;;;4850346;29;36547;-73
2022/09/13 12:59:29;;;;;;;1.77;0.70;;;24.20;99.90;;;;;;4840369;29;37491;-75
2022/09/13 13:01:57;;;;;;;3.42;0.80;;;24.20;99.90;;;;;;4799205;29;1235542;-74
2022/09/13 13:04:29;;;;;;;2.33;0.82;;;24.20;99.90;;;;;;4851367;29;40412;-75
2022/09/13 13:07:01;;;;;;;5.90;0.80;;;24.30;99.90;;;;;;4842461;29;37287;-76
2022/09/13 13:09:43;;;;;;;3.45;0.70;;;24.40;99.90;;;;;;4846007;29;48799;-75
2022/09/13 13:12:11;;;;;;;0.43;0.43;;;24.40;99.90;;;;;;4847829;29;38562;-78
2022/09/13 13:14:37;;;;;;;1.58;0.57;;;24.30;99.90;;;;;;4851768;29;35337;-78